Bryce Canyon Airport Bryce Canyon US
ICAO: KBCE
IATA: BCE
Category: Medium
Scheduled Services: No

Elevation: 7590 ft
TransAlt. 18000 ft.

Airport Communications:
ASOS:135.475
CEDAR CITY RDO:122.2
CTAF/UNICOM:122.8

KBCE Zoom In..

Runways:

(A) RW 03 length 7395 ft width 75 ft
---- / hdg 33

(B) RW 21 length 7395 ft width 75 ft
---- / hdg 213

Location; KBCE
Day. 22 / Time. 21.53 Zulu
* Altimeter: 29.84
* Temperature: 11° c. 51.8°f.
* Wind from: 280° Speed 16 kn with Gusts up to 20 kn.
Dewpoint: -11° c.
Visibility: 10 Statute Miles.
Clouds: Few 7500 ft.
Clouds: Scattered 8500 ft.

KBCE 222153Z AUTO 28016G20KT 10SM FEW075 SCT085 11/M11 A2984 RMK AO2 SLP047 T01111106

Going to: --> -->


Wind From 280°
Speed 16 kn.

 
 
jpsmedia worldairports.se 2021   terms of use